createdAt,value
2023-05-07T00:02:00.504Z,3.89
2023-05-07T00:04:29.648Z,3.84
2023-05-07T00:06:57.822Z,3.79
2023-05-07T00:09:28.831Z,3.73
2023-05-07T00:11:56.757Z,3.75
2023-05-07T00:14:24.785Z,3.72
2023-05-07T00:16:52.882Z,3.70
2023-05-07T00:19:21.138Z,3.67
2023-05-07T00:21:49.324Z,3.66
2023-05-07T00:24:17.208Z,3.65
2023-05-07T00:26:45.159Z,3.64
2023-05-07T00:29:13.022Z,3.61
2023-05-07T00:31:41.011Z,3.56
2023-05-07T00:34:09.062Z,3.52
2023-05-07T00:36:37.598Z,3.48
2023-05-07T00:39:05.766Z,3.43
2023-05-07T00:41:33.712Z,3.34
2023-05-07T00:44:03.415Z,3.25
2023-05-07T00:46:31.969Z,3.17
2023-05-07T00:49:00.571Z,3.08
2023-05-07T00:51:28.501Z,2.98
2023-05-07T00:53:56.521Z,2.90
2023-05-07T00:56:24.794Z,2.84
2023-05-07T00:58:52.993Z,2.77
2023-05-07T01:01:21.116Z,2.71
2023-05-07T01:03:49.520Z,2.66
2023-05-07T01:06:18.234Z,2.59
2023-05-07T01:08:47.060Z,2.54
2023-05-07T01:11:15.526Z,2.51
2023-05-07T01:13:43.971Z,2.48
2023-05-07T01:16:12.215Z,2.42
2023-05-07T01:18:40.709Z,2.36
2023-05-07T01:21:08.783Z,2.35
2023-05-07T01:23:36.768Z,2.33
2023-05-07T01:26:04.721Z,2.28
2023-05-07T01:28:33.563Z,2.22
2023-05-07T01:31:03.522Z,2.19
2023-05-07T01:33:34.220Z,2.15
2023-05-07T01:36:04.671Z,2.09
2023-05-07T01:38:32.777Z,2.04
2023-05-07T01:41:01.239Z,2.00
2023-05-07T01:43:30.051Z,1.94
2023-05-07T01:45:58.762Z,1.90
2023-05-07T01:48:26.831Z,1.86
2023-05-07T01:50:54.821Z,1.83
2023-05-07T01:53:22.808Z,1.80
2023-05-07T01:55:50.796Z,1.83
2023-05-07T01:58:18.784Z,1.83
2023-05-07T02:00:46.702Z,1.78
2023-05-07T02:03:14.834Z,1.75
2023-05-07T02:05:47.505Z,1.72
2023-05-07T02:08:22.581Z,1.71
2023-05-07T02:10:52.588Z,1.72
2023-05-07T02:13:21.131Z,1.70
2023-05-07T02:15:51.761Z,1.66
2023-05-07T02:18:20.183Z,1.59
2023-05-07T02:20:48.204Z,1.51
2023-05-07T02:23:16.109Z,1.45
2023-05-07T02:25:44.000Z,1.41
2023-05-07T02:28:11.976Z,1.43
2023-05-07T02:30:52.197Z,1.50
2023-05-07T02:33:20.718Z,1.60
2023-05-07T02:35:48.918Z,1.67
2023-05-07T02:38:17.375Z,1.69
2023-05-07T02:40:45.438Z,1.72
2023-05-07T02:43:13.410Z,1.80
2023-05-07T02:45:44.424Z,1.84
2023-05-07T02:48:12.768Z,1.90
2023-05-07T02:50:40.950Z,1.92
2023-05-07T02:53:09.465Z,1.91
2023-05-07T02:55:37.468Z,1.90
2023-05-07T02:58:05.437Z,1.88
2023-05-07T03:00:34.931Z,1.81
2023-05-07T03:03:12.023Z,1.73
2023-05-07T03:05:40.130Z,1.65
2023-05-07T03:08:08.506Z,1.60
2023-05-07T03:10:37.328Z,1.54
2023-05-07T03:13:05.383Z,1.48
2023-05-07T03:15:33.855Z,1.48
2023-05-07T03:18:02.052Z,1.50
2023-05-07T03:20:30.165Z,1.52
2023-05-07T03:22:58.573Z,1.53
2023-05-07T03:25:26.929Z,1.55
2023-05-07T03:27:54.910Z,1.55
2023-05-07T03:30:24.935Z,1.55
2023-05-07T03:32:53.044Z,1.55
2023-05-07T03:35:21.363Z,1.54
2023-05-07T03:37:49.687Z,1.58
2023-05-07T03:40:17.933Z,1.63
2023-05-07T03:42:49.469Z,1.70
2023-05-07T03:45:18.045Z,1.80
2023-05-07T03:47:49.491Z,1.90
2023-05-07T03:50:20.691Z,1.99
2023-05-07T03:52:48.769Z,2.09
2023-05-07T03:55:17.693Z,2.19
2023-05-07T03:57:49.829Z,2.35
2023-05-07T04:00:18.155Z,2.48
2023-05-07T04:02:49.414Z,2.59
2023-05-07T04:05:21.865Z,2.69
2023-05-07T04:07:51.672Z,2.81
2023-05-07T04:10:22.347Z,2.94
2023-05-07T04:12:51.077Z,3.09
2023-05-07T04:15:21.675Z,3.22
2023-05-07T04:17:50.060Z,3.32
2023-05-07T04:20:19.669Z,3.43
2023-05-07T04:22:53.604Z,3.57
2023-05-07T04:25:21.873Z,3.71
2023-05-07T04:27:50.147Z,3.82
2023-05-07T04:30:18.456Z,3.91
2023-05-07T04:32:46.660Z,3.98
2023-05-07T04:35:14.721Z,4.04
2023-05-07T04:37:43.336Z,4.11
2023-05-07T04:40:12.196Z,4.18
2023-05-07T04:42:40.915Z,4.24
2023-05-07T04:45:09.902Z,4.33
2023-05-07T04:47:39.069Z,4.39
2023-05-07T04:50:08.020Z,4.48
2023-05-07T04:52:36.251Z,4.56
2023-05-07T04:55:04.919Z,4.63
2023-05-07T04:57:36.864Z,4.64
2023-05-07T05:00:06.319Z,4.70
2023-05-07T05:02:35.002Z,4.80
2023-05-07T05:05:03.588Z,5.49
2023-05-07T05:07:31.513Z,7.07
2023-05-07T05:09:59.702Z,8.18
2023-05-07T05:12:27.676Z,9.17
2023-05-07T05:14:55.789Z,10.17
2023-05-07T05:17:23.809Z,10.70
2023-05-07T05:19:52.030Z,11.19
2023-05-07T05:22:21.936Z,11.35
2023-05-07T05:24:50.608Z,11.97
2023-05-07T05:27:18.596Z,12.64
2023-05-07T05:29:46.512Z,12.89
2023-05-07T05:32:14.504Z,13.30
2023-05-07T05:34:42.656Z,12.99
2023-05-07T05:37:10.601Z,12.73
2023-05-07T05:39:38.801Z,12.97
2023-05-07T05:42:07.551Z,13.37
2023-05-07T05:44:36.712Z,13.43
2023-05-07T05:47:04.737Z,14.04
2023-05-07T05:49:32.783Z,13.73
2023-05-07T05:52:01.288Z,13.82
2023-05-07T05:54:29.559Z,13.86
2023-05-07T05:56:57.990Z,13.76
2023-05-07T05:59:26.708Z,14.09
2023-05-07T06:01:54.935Z,14.27
2023-05-07T06:04:23.335Z,14.26
2023-05-07T06:06:51.293Z,14.17
2023-05-07T06:09:19.522Z,14.11
2023-05-07T06:11:47.575Z,14.00
2023-05-07T06:14:15.818Z,13.83
2023-05-07T06:16:45.282Z,13.82
2023-05-07T06:19:13.429Z,14.11
2023-05-07T06:21:41.914Z,13.98
2023-05-07T06:24:10.161Z,14.08
2023-05-07T06:26:39.491Z,14.11
2023-05-07T06:29:07.617Z,14.21
2023-05-07T06:31:35.981Z,14.07
2023-05-07T06:34:06.635Z,14.29
2023-05-07T06:36:39.150Z,14.00
2023-05-07T06:39:19.273Z,14.17
2023-05-07T06:41:47.381Z,13.99
2023-05-07T06:44:23.768Z,13.71
2023-05-07T06:47:01.336Z,13.84
2023-05-07T06:49:29.581Z,13.88
2023-05-07T06:51:57.696Z,13.99
2023-05-07T06:54:26.235Z,14.40
2023-05-07T06:56:54.963Z,14.20
2023-05-07T06:59:27.143Z,13.97
2023-05-07T07:01:55.786Z,13.99
2023-05-07T07:04:25.485Z,13.88
2023-05-07T07:07:00.464Z,13.84
2023-05-07T07:09:28.575Z,14.29
2023-05-07T07:11:56.846Z,13.85
2023-05-07T07:14:25.178Z,14.39
2023-05-07T07:16:53.703Z,14.39
2023-05-07T07:19:22.094Z,14.59
2023-05-07T07:21:52.119Z,15.10
2023-05-07T07:24:22.485Z,15.40
2023-05-07T07:26:54.097Z,15.63
2023-05-07T07:29:22.434Z,15.53
2023-05-07T07:31:51.331Z,15.12
2023-05-07T07:34:20.152Z,15.30
2023-05-07T07:36:48.513Z,15.61
2023-05-07T07:39:19.635Z,15.10
2023-05-07T07:41:49.430Z,14.73
2023-05-07T07:44:18.926Z,14.92
2023-05-07T07:46:51.999Z,15.11
2023-05-07T07:49:20.568Z,14.81
2023-05-07T07:51:48.837Z,14.69
2023-05-07T07:54:17.818Z,14.54
2023-05-07T07:56:46.345Z,14.96
2023-05-07T07:59:18.701Z,15.54
2023-05-07T08:01:49.387Z,15.74
2023-05-07T08:04:17.812Z,15.45
2023-05-07T08:06:46.553Z,15.10
2023-05-07T08:09:14.620Z,14.59
2023-05-07T08:11:42.821Z,14.47
2023-05-07T08:14:11.345Z,15.12
2023-05-07T08:16:39.572Z,15.42
2023-05-07T08:19:09.024Z,15.86
2023-05-07T08:21:39.953Z,16.11
2023-05-07T08:24:08.188Z,16.00
2023-05-07T08:26:37.484Z,16.21
2023-05-07T08:29:05.479Z,16.44
2023-05-07T08:31:33.502Z,16.80
2023-05-07T08:34:01.480Z,16.90
2023-05-07T08:36:29.701Z,16.64
2023-05-07T08:38:58.498Z,16.35
2023-05-07T08:41:27.114Z,16.48
2023-05-07T08:43:55.547Z,16.81
2023-05-07T08:46:23.865Z,17.22
2023-05-07T08:48:56.115Z,17.19
2023-05-07T08:51:24.938Z,16.98
2023-05-07T08:53:53.423Z,17.05
2023-05-07T08:56:27.701Z,17.33
2023-05-07T08:58:59.685Z,17.78
2023-05-07T09:01:29.343Z,17.98
2023-05-07T09:03:58.833Z,17.99
2023-05-07T09:06:28.686Z,18.13
2023-05-07T09:08:58.619Z,18.31
2023-05-07T09:11:29.147Z,18.42
2023-05-07T09:14:02.381Z,17.93
2023-05-07T09:16:35.064Z,17.89
2023-05-07T09:19:03.656Z,17.82
2023-05-07T09:21:32.758Z,17.72
2023-05-07T09:24:01.483Z,17.13
2023-05-07T09:26:36.110Z,17.32
2023-05-07T09:29:04.908Z,17.79
2023-05-07T09:31:34.189Z,18.41
2023-05-07T09:34:03.460Z,18.48
2023-05-07T09:36:33.851Z,18.32
2023-05-07T09:39:02.459Z,18.21
2023-05-07T09:41:32.220Z,18.36
2023-05-07T09:44:15.734Z,17.82
2023-05-07T09:46:46.383Z,18.18
2023-05-07T09:49:23.712Z,18.10
2023-05-07T09:51:54.325Z,18.09
2023-05-07T09:54:24.647Z,17.91
2023-05-07T09:56:54.453Z,17.43
2023-05-07T09:59:24.894Z,17.98
2023-05-07T10:01:53.652Z,18.21
2023-05-07T10:04:21.774Z,18.33
2023-05-07T10:06:50.524Z,18.39
2023-05-07T10:09:19.272Z,18.38
2023-05-07T10:11:47.419Z,18.53
2023-05-07T10:14:15.481Z,18.22
2023-05-07T10:16:44.038Z,18.45
2023-05-07T10:19:14.236Z,18.76
2023-05-07T10:21:46.346Z,19.05
2023-05-07T10:24:20.653Z,18.90
2023-05-07T10:26:51.188Z,18.71
2023-05-07T10:29:29.926Z,18.37
2023-05-07T10:32:07.641Z,18.49
2023-05-07T10:34:41.757Z,18.60
2023-05-07T10:37:10.151Z,18.86
2023-05-07T10:39:38.577Z,18.98
2023-05-07T10:42:10.810Z,19.00
2023-05-07T10:44:39.314Z,18.64
2023-05-07T10:47:11.743Z,19.14
2023-05-07T10:49:46.769Z,18.88
2023-05-07T10:52:25.655Z,18.91
2023-05-07T10:55:15.981Z,19.00
2023-05-07T10:57:44.846Z,18.87
2023-05-07T11:00:22.421Z,18.70
2023-05-07T11:03:02.540Z,18.84
2023-05-07T11:05:42.735Z,18.77
2023-05-07T11:08:24.810Z,18.36
2023-05-07T11:11:00.843Z,18.26
2023-05-07T11:13:48.941Z,18.12
2023-05-07T11:16:34.094Z,18.32
2023-05-07T11:19:09.418Z,18.53
2023-05-07T11:21:42.718Z,18.67
2023-05-07T11:24:43.303Z,19.07
2023-05-07T11:27:12.052Z,19.17
2023-05-07T11:29:40.043Z,19.25
2023-05-07T11:32:11.388Z,19.02
2023-05-07T11:34:46.934Z,18.92
2023-05-07T11:37:18.457Z,18.54
2023-05-07T11:40:06.662Z,18.67
2023-05-07T11:42:39.076Z,18.85
2023-05-07T11:45:08.195Z,18.82
2023-05-07T11:47:36.334Z,18.07
2023-05-07T11:50:08.723Z,18.71
2023-05-07T11:52:36.993Z,18.46
2023-05-07T11:55:05.797Z,18.50
2023-05-07T11:57:34.306Z,18.33
2023-05-07T12:00:06.507Z,18.39
2023-05-07T12:02:40.938Z,18.70
2023-05-07T12:05:09.397Z,18.80
2023-05-07T12:07:37.612Z,18.91
2023-05-07T12:10:07.656Z,19.03
2023-05-07T12:12:43.190Z,19.27
2023-05-07T12:15:12.024Z,19.20
2023-05-07T12:17:40.483Z,19.35
2023-05-07T12:20:09.085Z,19.16
2023-05-07T12:22:37.783Z,18.69
2023-05-07T12:25:07.344Z,18.59
2023-05-07T12:27:38.224Z,18.20
2023-05-07T12:30:07.025Z,18.04
2023-05-07T12:32:38.026Z,17.85
2023-05-07T12:35:07.541Z,17.57
2023-05-07T12:37:35.801Z,18.12
2023-05-07T12:40:11.054Z,18.73
2023-05-07T12:42:40.776Z,18.75
2023-05-07T12:45:13.215Z,19.17
2023-05-07T12:47:46.162Z,18.99
2023-05-07T12:50:15.525Z,19.21
2023-05-07T12:52:47.245Z,19.37
2023-05-07T12:55:16.792Z,19.53
2023-05-07T12:57:49.038Z,19.56
2023-05-07T13:00:17.382Z,19.45
2023-05-07T13:02:45.888Z,19.65
2023-05-07T13:05:14.683Z,19.51
2023-05-07T13:07:53.142Z,19.44
2023-05-07T13:10:21.152Z,19.53
2023-05-07T13:12:49.151Z,19.42
2023-05-07T13:15:17.503Z,19.40
2023-05-07T13:17:45.965Z,19.37
2023-05-07T13:20:14.041Z,19.49
2023-05-07T13:22:42.056Z,18.91
2023-05-07T13:25:10.896Z,18.28
2023-05-07T13:27:39.401Z,17.65
2023-05-07T13:30:08.749Z,18.03
2023-05-07T13:32:37.240Z,18.36
2023-05-07T13:35:05.926Z,18.85
2023-05-07T13:37:34.157Z,18.75
2023-05-07T13:40:02.823Z,18.68
2023-05-07T13:42:31.632Z,18.80
2023-05-07T13:44:59.736Z,19.75
2023-05-07T13:47:28.034Z,19.87
2023-05-07T13:49:56.566Z,19.99
2023-05-07T13:52:24.560Z,19.59
2023-05-07T13:54:53.623Z,19.64
2023-05-07T13:57:21.837Z,19.22
2023-05-07T13:59:49.804Z,19.06
2023-05-07T14:02:17.833Z,19.26
2023-05-07T14:04:46.387Z,19.34
2023-05-07T14:07:14.291Z,19.32
2023-05-07T14:09:42.337Z,19.52
2023-05-07T14:12:10.381Z,19.74
2023-05-07T14:14:38.272Z,19.49
2023-05-07T14:17:06.235Z,19.42
2023-05-07T14:19:34.184Z,19.56
2023-05-07T14:22:02.373Z,19.67
2023-05-07T14:24:38.053Z,19.69
2023-05-07T14:27:07.073Z,19.65
2023-05-07T14:29:36.571Z,19.28
2023-05-07T14:32:04.877Z,19.10
2023-05-07T14:34:32.980Z,18.88
2023-05-07T14:37:01.100Z,18.37
2023-05-07T14:39:29.266Z,18.50
2023-05-07T14:41:58.208Z,18.59
2023-05-07T14:44:26.225Z,18.83
2023-05-07T14:46:54.270Z,18.90
2023-05-07T14:49:22.302Z,18.84
2023-05-07T14:51:50.338Z,18.22
2023-05-07T14:54:18.429Z,18.58
2023-05-07T14:56:46.657Z,18.81
2023-05-07T14:59:14.784Z,19.25
2023-05-07T15:01:46.474Z,19.49
2023-05-07T15:04:14.724Z,19.63
2023-05-07T15:06:43.899Z,19.54
2023-05-07T15:09:11.867Z,19.41
2023-05-07T15:11:39.914Z,19.43
2023-05-07T15:14:08.294Z,19.08
2023-05-07T15:16:36.372Z,19.02
2023-05-07T15:19:04.360Z,19.07
2023-05-07T15:21:35.308Z,19.07
2023-05-07T15:24:03.667Z,18.63
2023-05-07T15:26:31.631Z,18.27
2023-05-07T15:28:59.683Z,18.01
2023-05-07T15:31:27.927Z,18.65
2023-05-07T15:33:57.598Z,18.75
2023-05-07T15:36:26.390Z,18.77
2023-05-07T15:38:54.756Z,18.89
2023-05-07T15:41:22.790Z,18.74
2023-05-07T15:43:51.823Z,18.96
2023-05-07T15:46:21.251Z,18.90
2023-05-07T15:48:49.364Z,18.59
2023-05-07T15:51:18.481Z,18.36
2023-05-07T15:53:46.910Z,18.21
2023-05-07T15:56:15.015Z,18.00
2023-05-07T15:58:43.031Z,18.11
2023-05-07T16:01:11.131Z,18.39
2023-05-07T16:03:41.294Z,18.78
2023-05-07T16:06:12.053Z,19.10
2023-05-07T16:08:44.244Z,18.92
2023-05-07T16:11:12.476Z,18.72
2023-05-07T16:13:40.488Z,18.70
2023-05-07T16:16:08.729Z,18.74
2023-05-07T16:18:37.125Z,18.57
2023-05-07T16:21:06.525Z,18.63
2023-05-07T16:23:34.646Z,18.90
2023-05-07T16:26:02.572Z,18.95
2023-05-07T16:28:31.173Z,18.66
2023-05-07T16:30:59.208Z,18.41
2023-05-07T16:33:27.284Z,18.28
2023-05-07T16:35:55.376Z,18.35
2023-05-07T16:38:23.312Z,18.33
2023-05-07T16:40:51.312Z,18.29
2023-05-07T16:43:19.237Z,18.22
2023-05-07T16:45:47.283Z,18.14
2023-05-07T16:48:15.342Z,17.93
2023-05-07T16:50:46.608Z,17.44
2023-05-07T16:53:14.806Z,16.99
2023-05-07T16:55:43.023Z,16.64
2023-05-07T16:58:11.898Z,16.25
2023-05-07T17:00:50.141Z,15.97
2023-05-07T17:03:18.963Z,15.78
2023-05-07T17:05:47.373Z,15.58
2023-05-07T17:08:15.327Z,15.46
2023-05-07T17:10:43.874Z,15.32
2023-05-07T17:13:12.988Z,15.18
2023-05-07T17:15:43.729Z,15.05
2023-05-07T17:18:15.005Z,14.96
2023-05-07T17:20:43.165Z,14.85
2023-05-07T17:23:11.557Z,14.84
2023-05-07T17:25:45.683Z,14.85
2023-05-07T17:28:13.635Z,14.73
2023-05-07T17:30:42.537Z,14.62
2023-05-07T17:33:21.126Z,14.51
2023-05-07T17:35:49.995Z,14.39
2023-05-07T17:38:18.050Z,14.30
2023-05-07T17:40:46.155Z,14.19
2023-05-07T17:43:14.707Z,14.09
2023-05-07T17:45:42.953Z,13.96
2023-05-07T17:48:11.300Z,13.81
2023-05-07T17:50:39.494Z,13.64
2023-05-07T17:53:09.929Z,13.47
2023-05-07T17:55:44.379Z,13.24
2023-05-07T17:58:12.509Z,12.91
2023-05-07T18:00:42.866Z,12.69
2023-05-07T18:03:11.139Z,12.46
2023-05-07T18:05:39.867Z,12.22
2023-05-07T18:08:08.334Z,11.98
2023-05-07T18:10:36.362Z,11.74
2023-05-07T18:13:04.535Z,11.51
2023-05-07T18:15:32.540Z,11.26
2023-05-07T18:18:00.885Z,11.05
2023-05-07T18:20:30.524Z,10.82
2023-05-07T18:22:58.759Z,10.58
2023-05-07T18:25:26.785Z,10.39
2023-05-07T18:27:54.860Z,10.21
2023-05-07T18:30:22.848Z,10.05
2023-05-07T18:32:50.834Z,9.89
2023-05-07T18:35:19.161Z,9.73
2023-05-07T18:37:47.096Z,9.58
2023-05-07T18:40:15.299Z,9.45
2023-05-07T18:42:43.465Z,9.31
2023-05-07T18:45:11.756Z,9.18
2023-05-07T18:47:39.846Z,9.06
2023-05-07T18:50:08.373Z,8.94
2023-05-07T18:52:36.879Z,8.82
2023-05-07T18:55:06.285Z,8.67
2023-05-07T18:57:34.424Z,8.55
2023-05-07T19:00:02.533Z,8.45
2023-05-07T19:02:30.515Z,8.35
2023-05-07T19:04:58.540Z,8.25
2023-05-07T19:07:26.639Z,8.14
2023-05-07T19:10:04.213Z,8.03
2023-05-07T19:12:33.724Z,7.92
2023-05-07T19:15:01.630Z,7.84
2023-05-07T19:17:29.750Z,7.81
2023-05-07T19:19:58.336Z,7.76
2023-05-07T19:22:26.525Z,7.68
2023-05-07T19:24:54.453Z,7.59
2023-05-07T19:27:22.387Z,7.51
2023-05-07T19:29:50.470Z,7.41
2023-05-07T19:32:23.494Z,7.33
2023-05-07T19:34:51.593Z,7.24
2023-05-07T19:37:22.906Z,7.20
2023-05-07T19:39:51.080Z,7.16
2023-05-07T19:42:18.957Z,7.10
2023-05-07T19:44:46.860Z,7.02
2023-05-07T19:47:16.211Z,6.98
2023-05-07T19:49:44.255Z,6.93
2023-05-07T19:52:12.445Z,6.86
2023-05-07T19:54:40.480Z,6.80
2023-05-07T19:57:08.899Z,6.96
2023-05-07T19:59:36.808Z,7.54
2023-05-07T20:02:04.784Z,7.84
2023-05-07T20:04:37.839Z,7.95
2023-05-07T20:07:06.063Z,8.02
2023-05-07T20:09:34.657Z,8.13
2023-05-07T20:12:02.695Z,8.11
2023-05-07T20:14:30.664Z,8.01
2023-05-07T20:16:58.662Z,7.89
2023-05-07T20:19:26.729Z,7.77
2023-05-07T20:21:54.757Z,7.77
2023-05-07T20:24:23.546Z,7.79
2023-05-07T20:26:51.598Z,7.70
2023-05-07T20:29:19.718Z,7.58
2023-05-07T20:31:47.752Z,7.49
2023-05-07T20:34:15.895Z,7.37
2023-05-07T20:36:45.289Z,7.23
2023-05-07T20:39:16.148Z,7.07
2023-05-07T20:41:44.389Z,6.92
2023-05-07T20:44:12.864Z,6.79
2023-05-07T20:46:41.239Z,6.69
2023-05-07T20:49:09.280Z,6.57
2023-05-07T20:51:37.474Z,6.46
2023-05-07T20:54:05.503Z,6.37
2023-05-07T20:56:33.499Z,6.29
2023-05-07T20:59:01.625Z,6.23
2023-05-07T21:01:29.751Z,6.20
2023-05-07T21:03:58.002Z,6.21
2023-05-07T21:06:26.439Z,6.19
2023-05-07T21:08:54.728Z,6.15
2023-05-07T21:11:22.659Z,6.09
2023-05-07T21:13:51.380Z,6.02
2023-05-07T21:16:22.051Z,5.94
2023-05-07T21:18:51.035Z,5.85
2023-05-07T21:21:18.976Z,5.77
2023-05-07T21:23:46.898Z,5.69
2023-05-07T21:26:18.778Z,5.62
2023-05-07T21:28:46.836Z,5.57
2023-05-07T21:31:14.760Z,5.49
2023-05-07T21:33:43.504Z,5.40
2023-05-07T21:36:12.428Z,5.31
2023-05-07T21:38:40.475Z,5.24
2023-05-07T21:41:08.653Z,5.16
2023-05-07T21:43:36.569Z,5.09
2023-05-07T21:46:10.518Z,5.04
2023-05-07T21:48:38.660Z,5.01
2023-05-07T21:51:07.693Z,5.03
2023-05-07T21:53:36.292Z,4.99
2023-05-07T21:56:05.110Z,4.99
2023-05-07T21:58:33.194Z,4.94
2023-05-07T22:01:01.509Z,4.90
2023-05-07T22:03:29.977Z,4.86
2023-05-07T22:05:57.926Z,4.81
2023-05-07T22:08:26.202Z,4.79
2023-05-07T22:10:54.113Z,4.76
2023-05-07T22:13:22.842Z,4.72
2023-05-07T22:15:57.312Z,4.68
2023-05-07T22:18:26.514Z,4.66
2023-05-07T22:20:55.612Z,4.66
2023-05-07T22:23:23.684Z,4.64
2023-05-07T22:25:51.638Z,4.59
2023-05-07T22:28:19.622Z,4.56
2023-05-07T22:30:48.136Z,4.56
2023-05-07T22:33:16.066Z,4.54
2023-05-07T22:35:44.055Z,4.51
2023-05-07T22:38:12.099Z,4.47
2023-05-07T22:40:42.060Z,4.46
2023-05-07T22:43:09.957Z,4.44
2023-05-07T22:45:37.852Z,4.41
2023-05-07T22:48:06.339Z,4.40
2023-05-07T22:50:38.027Z,4.39
2023-05-07T22:53:06.731Z,4.37
2023-05-07T22:55:35.339Z,4.35
2023-05-07T22:58:03.366Z,4.32
2023-05-07T23:00:32.479Z,4.29
2023-05-07T23:03:00.639Z,4.27
2023-05-07T23:05:28.615Z,4.27
2023-05-07T23:07:56.537Z,4.25
2023-05-07T23:10:25.053Z,4.22
2023-05-07T23:12:53.150Z,4.20
2023-05-07T23:15:21.385Z,4.15
2023-05-07T23:17:49.461Z,4.11
2023-05-07T23:20:17.527Z,4.06
2023-05-07T23:22:45.424Z,4.01
2023-05-07T23:25:13.370Z,3.97
2023-05-07T23:27:41.496Z,3.94
2023-05-07T23:30:10.552Z,3.92
2023-05-07T23:32:38.810Z,3.88
2023-05-07T23:35:07.336Z,3.85
2023-05-07T23:37:35.324Z,3.81
2023-05-07T23:40:03.745Z,3.79
2023-05-07T23:42:32.368Z,3.77
2023-05-07T23:45:00.666Z,3.73
2023-05-07T23:47:28.656Z,3.70
2023-05-07T23:49:56.534Z,3.66
2023-05-07T23:52:24.608Z,3.64
2023-05-07T23:54:52.595Z,3.62
2023-05-07T23:57:20.587Z,3.58
2023-05-07T23:59:48.537Z,3.56
